sensor_id;sensor_type;location;lat;lon;timestamp;P1;durP1;ratioP1;P2;durP2;ratioP2
17618;SDS011;8928;51.678;6.074;2022-10-16T00:01:59;21.43;;;7.67;;
17618;SDS011;8928;51.678;6.074;2022-10-16T00:04:46;16.23;;;7.80;;
17618;SDS011;8928;51.678;6.074;2022-10-16T00:07:33;22.77;;;7.77;;
17618;SDS011;8928;51.678;6.074;2022-10-16T00:10:20;19.87;;;8.03;;
17618;SDS011;8928;51.678;6.074;2022-10-16T00:13:07;15.17;;;8.10;;
17618;SDS011;8928;51.678;6.074;2022-10-16T00:15:56;18.77;;;8.43;;
17618;SDS011;8928;51.678;6.074;2022-10-16T00:18:44;17.07;;;7.87;;
17618;SDS011;8928;51.678;6.074;2022-10-16T00:21:31;13.93;;;7.57;;
17618;SDS011;8928;51.678;6.074;2022-10-16T00:24:19;17.47;;;7.80;;
17618;SDS011;8928;51.678;6.074;2022-10-16T00:27:06;15.27;;;7.20;;
17618;SDS011;8928;51.678;6.074;2022-10-16T00:29:53;18.17;;;8.13;;
17618;SDS011;8928;51.678;6.074;2022-10-16T00:32:41;19.73;;;7.50;;
17618;SDS011;8928;51.678;6.074;2022-10-16T00:35:28;17.17;;;7.40;;
17618;SDS011;8928;51.678;6.074;2022-10-16T00:38:16;15.10;;;7.87;;
17618;SDS011;8928;51.678;6.074;2022-10-16T00:41:04;18.07;;;7.43;;
17618;SDS011;8928;51.678;6.074;2022-10-16T00:43:52;17.93;;;7.33;;
17618;SDS011;8928;51.678;6.074;2022-10-16T00:46:40;13.73;;;6.77;;
17618;SDS011;8928;51.678;6.074;2022-10-16T00:49:29;17.93;;;7.50;;
17618;SDS011;8928;51.678;6.074;2022-10-16T00:52:16;15.10;;;6.90;;
17618;SDS011;8928;51.678;6.074;2022-10-16T00:55:04;14.77;;;7.00;;
17618;SDS011;8928;51.678;6.074;2022-10-16T00:57:53;11.37;;;7.03;;
17618;SDS011;8928;51.678;6.074;2022-10-16T01:00:41;15.03;;;7.20;;
17618;SDS011;8928;51.678;6.074;2022-10-16T01:03:28;16.63;;;7.17;;
17618;SDS011;8928;51.678;6.074;2022-10-16T01:06:29;16.73;;;7.07;;
17618;SDS011;8928;51.678;6.074;2022-10-16T01:09:23;19.17;;;6.83;;
17618;SDS011;8928;51.678;6.074;2022-10-16T01:12:17;17.53;;;6.93;;
17618;SDS011;8928;51.678;6.074;2022-10-16T01:15:17;14.50;;;6.70;;
17618;SDS011;8928;51.678;6.074;2022-10-16T01:18:08;17.50;;;6.83;;
17618;SDS011;8928;51.678;6.074;2022-10-16T01:21:01;12.90;;;7.00;;
17618;SDS011;8928;51.678;6.074;2022-10-16T01:23:51;17.83;;;7.07;;
17618;SDS011;8928;51.678;6.074;2022-10-16T01:27:05;14.07;;;7.03;;
17618;SDS011;8928;51.678;6.074;2022-10-16T01:29:56;17.00;;;7.10;;
17618;SDS011;8928;51.678;6.074;2022-10-16T01:32:49;15.57;;;7.13;;
17618;SDS011;8928;51.678;6.074;2022-10-16T01:35:40;16.00;;;7.20;;
17618;SDS011;8928;51.678;6.074;2022-10-16T01:38:30;15.53;;;7.53;;
17618;SDS011;8928;51.678;6.074;2022-10-16T01:41:21;12.50;;;6.97;;
17618;SDS011;8928;51.678;6.074;2022-10-16T01:44:15;14.77;;;7.00;;
17618;SDS011;8928;51.678;6.074;2022-10-16T01:47:06;16.03;;;7.20;;
17618;SDS011;8928;51.678;6.074;2022-10-16T01:49:56;11.73;;;6.73;;
17618;SDS011;8928;51.678;6.074;2022-10-16T01:52:45;16.93;;;6.83;;
17618;SDS011;8928;51.678;6.074;2022-10-16T01:55:36;14.70;;;6.80;;
17618;SDS011;8928;51.678;6.074;2022-10-16T01:58:30;16.13;;;6.53;;
17618;SDS011;8928;51.678;6.074;2022-10-16T02:01:24;15.57;;;6.87;;
17618;SDS011;8928;51.678;6.074;2022-10-16T02:04:15;11.53;;;6.73;;
17618;SDS011;8928;51.678;6.074;2022-10-16T02:07:05;16.90;;;7.70;;
17618;SDS011;8928;51.678;6.074;2022-10-16T02:09:53;16.90;;;7.20;;
17618;SDS011;8928;51.678;6.074;2022-10-16T02:12:42;20.17;;;7.83;;
17618;SDS011;8928;51.678;6.074;2022-10-16T02:15:34;13.83;;;7.50;;
17618;SDS011;8928;51.678;6.074;2022-10-16T02:18:22;21.50;;;7.53;;
17618;SDS011;8928;51.678;6.074;2022-10-16T02:21:16;18.80;;;7.40;;
17618;SDS011;8928;51.678;6.074;2022-10-16T02:24:10;17.47;;;7.60;;
17618;SDS011;8928;51.678;6.074;2022-10-16T02:27:03;19.63;;;7.33;;
17618;SDS011;8928;51.678;6.074;2022-10-16T02:29:58;14.10;;;7.20;;
17618;SDS011;8928;51.678;6.074;2022-10-16T02:32:53;12.63;;;6.77;;
17618;SDS011;8928;51.678;6.074;2022-10-16T02:35:42;16.47;;;6.43;;
17618;SDS011;8928;51.678;6.074;2022-10-16T02:38:31;14.10;;;6.40;;
17618;SDS011;8928;51.678;6.074;2022-10-16T02:41:20;14.77;;;6.57;;
17618;SDS011;8928;51.678;6.074;2022-10-16T02:44:07;17.80;;;6.07;;
17618;SDS011;8928;51.678;6.074;2022-10-16T02:46:54;20.37;;;6.10;;
17618;SDS011;8928;51.678;6.074;2022-10-16T02:49:41;10.40;;;5.80;;
17618;SDS011;8928;51.678;6.074;2022-10-16T02:52:30;12.23;;;5.77;;
17618;SDS011;8928;51.678;6.074;2022-10-16T02:55:17;13.83;;;5.97;;
17618;SDS011;8928;51.678;6.074;2022-10-16T02:58:04;13.70;;;6.03;;
17618;SDS011;8928;51.678;6.074;2022-10-16T03:00:51;16.27;;;6.03;;
17618;SDS011;8928;51.678;6.074;2022-10-16T03:03:38;12.17;;;5.50;;
17618;SDS011;8928;51.678;6.074;2022-10-16T03:06:25;10.83;;;5.47;;
17618;SDS011;8928;51.678;6.074;2022-10-16T03:09:13;10.60;;;5.53;;
17618;SDS011;8928;51.678;6.074;2022-10-16T03:12:00;13.57;;;5.30;;
17618;SDS011;8928;51.678;6.074;2022-10-16T03:14:47;13.17;;;5.20;;
17618;SDS011;8928;51.678;6.074;2022-10-16T03:17:34;9.63;;;4.97;;
17618;SDS011;8928;51.678;6.074;2022-10-16T03:20:21;10.57;;;4.83;;
17618;SDS011;8928;51.678;6.074;2022-10-16T03:23:08;11.87;;;4.83;;
17618;SDS011;8928;51.678;6.074;2022-10-16T03:25:57;11.53;;;4.90;;
17618;SDS011;8928;51.678;6.074;2022-10-16T03:28:44;11.60;;;4.70;;
17618;SDS011;8928;51.678;6.074;2022-10-16T03:31:31;9.77;;;4.87;;
17618;SDS011;8928;51.678;6.074;2022-10-16T03:34:18;8.53;;;4.60;;
17618;SDS011;8928;51.678;6.074;2022-10-16T03:37:05;9.43;;;4.57;;
17618;SDS011;8928;51.678;6.074;2022-10-16T03:39:52;9.80;;;4.43;;
17618;SDS011;8928;51.678;6.074;2022-10-16T03:42:41;9.47;;;4.80;;
17618;SDS011;8928;51.678;6.074;2022-10-16T03:45:29;11.77;;;4.70;;
17618;SDS011;8928;51.678;6.074;2022-10-16T03:48:16;9.13;;;5.00;;
17618;SDS011;8928;51.678;6.074;2022-10-16T03:51:03;9.83;;;4.57;;
17618;SDS011;8928;51.678;6.074;2022-10-16T03:53:50;8.50;;;4.47;;
17618;SDS011;8928;51.678;6.074;2022-10-16T03:56:37;9.83;;;4.40;;
17618;SDS011;8928;51.678;6.074;2022-10-16T03:59:26;8.40;;;4.23;;
17618;SDS011;8928;51.678;6.074;2022-10-16T04:02:13;10.50;;;4.10;;
17618;SDS011;8928;51.678;6.074;2022-10-16T04:05:00;10.00;;;4.33;;
17618;SDS011;8928;51.678;6.074;2022-10-16T04:07:47;14.60;;;4.50;;
17618;SDS011;8928;51.678;6.074;2022-10-16T04:10:34;9.53;;;4.13;;
17618;SDS011;8928;51.678;6.074;2022-10-16T04:13:21;9.50;;;4.37;;
17618;SDS011;8928;51.678;6.074;2022-10-16T04:16:09;9.60;;;4.43;;
17618;SDS011;8928;51.678;6.074;2022-10-16T04:18:56;8.30;;;4.80;;
17618;SDS011;8928;51.678;6.074;2022-10-16T04:21:43;7.80;;;4.67;;
17618;SDS011;8928;51.678;6.074;2022-10-16T04:24:30;9.90;;;4.17;;
17618;SDS011;8928;51.678;6.074;2022-10-16T04:27:17;8.60;;;4.70;;
17618;SDS011;8928;51.678;6.074;2022-10-16T04:30:05;11.23;;;4.33;;
17618;SDS011;8928;51.678;6.074;2022-10-16T04:32:54;8.50;;;3.97;;
17618;SDS011;8928;51.678;6.074;2022-10-16T04:35:41;8.63;;;4.10;;
17618;SDS011;8928;51.678;6.074;2022-10-16T04:38:28;9.73;;;4.30;;
17618;SDS011;8928;51.678;6.074;2022-10-16T04:41:16;6.53;;;4.33;;
17618;SDS011;8928;51.678;6.074;2022-10-16T04:44:03;8.40;;;3.93;;
17618;SDS011;8928;51.678;6.074;2022-10-16T04:46:50;9.33;;;3.90;;
17618;SDS011;8928;51.678;6.074;2022-10-16T04:49:39;7.67;;;3.87;;
17618;SDS011;8928;51.678;6.074;2022-10-16T04:52:26;9.40;;;4.07;;
17618;SDS011;8928;51.678;6.074;2022-10-16T04:55:13;7.50;;;3.93;;
17618;SDS011;8928;51.678;6.074;2022-10-16T04:58:00;11.73;;;3.97;;
17618;SDS011;8928;51.678;6.074;2022-10-16T05:00:47;7.80;;;3.97;;
17618;SDS011;8928;51.678;6.074;2022-10-16T05:03:34;7.57;;;4.20;;
17618;SDS011;8928;51.678;6.074;2022-10-16T05:06:22;7.70;;;4.00;;
17618;SDS011;8928;51.678;6.074;2022-10-16T05:09:09;9.47;;;4.00;;
17618;SDS011;8928;51.678;6.074;2022-10-16T05:11:56;10.23;;;3.90;;
17618;SDS011;8928;51.678;6.074;2022-10-16T05:14:43;7.93;;;3.83;;
17618;SDS011;8928;51.678;6.074;2022-10-16T05:17:30;10.63;;;4.23;;
17618;SDS011;8928;51.678;6.074;2022-10-16T05:20:17;8.80;;;4.20;;
17618;SDS011;8928;51.678;6.074;2022-10-16T05:23:06;11.10;;;4.23;;
17618;SDS011;8928;51.678;6.074;2022-10-16T05:25:55;10.33;;;3.90;;
17618;SDS011;8928;51.678;6.074;2022-10-16T05:28:43;8.50;;;4.20;;
17618;SDS011;8928;51.678;6.074;2022-10-16T05:31:30;8.67;;;4.20;;
17618;SDS011;8928;51.678;6.074;2022-10-16T05:34:17;6.63;;;4.23;;
17618;SDS011;8928;51.678;6.074;2022-10-16T05:37:04;10.43;;;4.40;;
17618;SDS011;8928;51.678;6.074;2022-10-16T05:39:53;10.63;;;4.33;;
17618;SDS011;8928;51.678;6.074;2022-10-16T05:42:40;12.90;;;4.43;;
17618;SDS011;8928;51.678;6.074;2022-10-16T05:45:27;9.63;;;4.60;;
17618;SDS011;8928;51.678;6.074;2022-10-16T05:48:14;9.33;;;4.47;;
17618;SDS011;8928;51.678;6.074;2022-10-16T05:51:01;11.23;;;4.50;;
17618;SDS011;8928;51.678;6.074;2022-10-16T05:53:50;9.63;;;4.10;;
17618;SDS011;8928;51.678;6.074;2022-10-16T05:56:40;10.90;;;4.53;;
17618;SDS011;8928;51.678;6.074;2022-10-16T05:59:27;9.50;;;4.53;;
17618;SDS011;8928;51.678;6.074;2022-10-16T06:02:14;10.73;;;4.53;;
17618;SDS011;8928;51.678;6.074;2022-10-16T06:05:03;12.60;;;4.80;;
17618;SDS011;8928;51.678;6.074;2022-10-16T06:07:50;11.30;;;5.23;;
17618;SDS011;8928;51.678;6.074;2022-10-16T06:10:37;7.63;;;5.00;;
17618;SDS011;8928;51.678;6.074;2022-10-16T06:13:25;13.50;;;5.00;;
17618;SDS011;8928;51.678;6.074;2022-10-16T06:16:13;8.60;;;4.40;;
17618;SDS011;8928;51.678;6.074;2022-10-16T06:19:00;12.73;;;4.23;;
17618;SDS011;8928;51.678;6.074;2022-10-16T06:21:47;9.63;;;4.00;;
17618;SDS011;8928;51.678;6.074;2022-10-16T06:24:34;7.57;;;3.97;;
17618;SDS011;8928;51.678;6.074;2022-10-16T06:27:21;9.17;;;4.33;;
17618;SDS011;8928;51.678;6.074;2022-10-16T06:30:10;12.00;;;4.57;;
17618;SDS011;8928;51.678;6.074;2022-10-16T06:32:57;10.13;;;4.43;;
17618;SDS011;8928;51.678;6.074;2022-10-16T06:35:44;7.73;;;3.97;;
17618;SDS011;8928;51.678;6.074;2022-10-16T06:38:31;11.13;;;4.20;;
17618;SDS011;8928;51.678;6.074;2022-10-16T06:41:19;10.77;;;4.30;;
17618;SDS011;8928;51.678;6.074;2022-10-16T06:44:08;8.63;;;4.37;;
17618;SDS011;8928;51.678;6.074;2022-10-16T06:46:56;7.97;;;4.60;;
17618;SDS011;8928;51.678;6.074;2022-10-16T06:49:43;10.13;;;4.77;;
17618;SDS011;8928;51.678;6.074;2022-10-16T06:52:30;9.23;;;4.87;;
17618;SDS011;8928;51.678;6.074;2022-10-16T06:55:17;10.60;;;5.13;;
17618;SDS011;8928;51.678;6.074;2022-10-16T06:58:04;9.90;;;4.97;;
17618;SDS011;8928;51.678;6.074;2022-10-16T07:00:55;11.37;;;6.00;;
17618;SDS011;8928;51.678;6.074;2022-10-16T07:03:44;10.87;;;6.33;;
17618;SDS011;8928;51.678;6.074;2022-10-16T07:06:33;11.43;;;6.57;;
17618;SDS011;8928;51.678;6.074;2022-10-16T07:09:20;13.47;;;7.43;;
17618;SDS011;8928;51.678;6.074;2022-10-16T07:12:07;14.20;;;7.60;;
17618;SDS011;8928;51.678;6.074;2022-10-16T07:14:54;13.10;;;6.70;;
17618;SDS011;8928;51.678;6.074;2022-10-16T07:17:41;10.60;;;6.43;;
17618;SDS011;8928;51.678;6.074;2022-10-16T07:20:30;15.20;;;6.63;;
17618;SDS011;8928;51.678;6.074;2022-10-16T07:23:17;12.27;;;6.40;;
17618;SDS011;8928;51.678;6.074;2022-10-16T07:26:04;13.03;;;6.50;;
17618;SDS011;8928;51.678;6.074;2022-10-16T07:28:52;12.63;;;6.33;;
17618;SDS011;8928;51.678;6.074;2022-10-16T07:31:39;10.23;;;6.33;;
17618;SDS011;8928;51.678;6.074;2022-10-16T07:34:26;11.87;;;6.60;;
17618;SDS011;8928;51.678;6.074;2022-10-16T07:37:14;14.30;;;6.97;;
17618;SDS011;8928;51.678;6.074;2022-10-16T07:40:01;9.77;;;6.40;;
17618;SDS011;8928;51.678;6.074;2022-10-16T07:42:49;15.70;;;6.40;;
17618;SDS011;8928;51.678;6.074;2022-10-16T07:45:36;11.13;;;5.60;;
17618;SDS011;8928;51.678;6.074;2022-10-16T07:48:23;12.40;;;5.80;;
17618;SDS011;8928;51.678;6.074;2022-10-16T07:51:13;9.27;;;5.53;;
17618;SDS011;8928;51.678;6.074;2022-10-16T07:54:03;11.60;;;5.77;;
17618;SDS011;8928;51.678;6.074;2022-10-16T07:56:50;13.00;;;4.70;;
17618;SDS011;8928;51.678;6.074;2022-10-16T07:59:37;7.90;;;4.60;;
17618;SDS011;8928;51.678;6.074;2022-10-16T08:02:24;10.80;;;4.03;;
17618;SDS011;8928;51.678;6.074;2022-10-16T08:05:11;8.30;;;3.87;;
17618;SDS011;8928;51.678;6.074;2022-10-16T08:07:58;9.00;;;3.40;;
17618;SDS011;8928;51.678;6.074;2022-10-16T08:10:47;6.80;;;3.00;;
17618;SDS011;8928;51.678;6.074;2022-10-16T08:13:34;8.43;;;2.97;;
17618;SDS011;8928;51.678;6.074;2022-10-16T08:16:21;9.10;;;2.60;;
17618;SDS011;8928;51.678;6.074;2022-10-16T08:19:08;11.80;;;2.57;;
17618;SDS011;8928;51.678;6.074;2022-10-16T08:21:55;7.30;;;2.50;;
17618;SDS011;8928;51.678;6.074;2022-10-16T08:24:42;9.47;;;2.40;;
17618;SDS011;8928;51.678;6.074;2022-10-16T08:27:32;9.10;;;2.40;;
17618;SDS011;8928;51.678;6.074;2022-10-16T08:30:19;8.10;;;2.63;;
17618;SDS011;8928;51.678;6.074;2022-10-16T08:33:08;5.50;;;2.10;;
17618;SDS011;8928;51.678;6.074;2022-10-16T08:35:55;10.37;;;2.33;;
17618;SDS011;8928;51.678;6.074;2022-10-16T08:38:42;7.80;;;2.30;;
17618;SDS011;8928;51.678;6.074;2022-10-16T08:41:33;5.23;;;2.23;;
17618;SDS011;8928;51.678;6.074;2022-10-16T08:44:49;5.93;;;2.00;;
17618;SDS011;8928;51.678;6.074;2022-10-16T08:47:49;5.60;;;1.90;;
17618;SDS011;8928;51.678;6.074;2022-10-16T08:50:40;8.27;;;2.30;;
17618;SDS011;8928;51.678;6.074;2022-10-16T08:53:28;8.27;;;1.90;;
17618;SDS011;8928;51.678;6.074;2022-10-16T08:56:20;7.27;;;2.00;;
17618;SDS011;8928;51.678;6.074;2022-10-16T08:59:09;6.43;;;1.90;;
17618;SDS011;8928;51.678;6.074;2022-10-16T09:01:59;4.03;;;1.90;;
17618;SDS011;8928;51.678;6.074;2022-10-16T09:04:49;5.73;;;1.80;;
17618;SDS011;8928;51.678;6.074;2022-10-16T09:07:57;7.60;;;2.10;;
17618;SDS011;8928;51.678;6.074;2022-10-16T09:10:52;7.10;;;2.00;;
17618;SDS011;8928;51.678;6.074;2022-10-16T09:13:48;3.70;;;1.50;;
17618;SDS011;8928;51.678;6.074;2022-10-16T09:16:40;4.50;;;1.90;;
17618;SDS011;8928;51.678;6.074;2022-10-16T09:19:33;8.37;;;2.00;;
17618;SDS011;8928;51.678;6.074;2022-10-16T09:22:28;5.80;;;1.90;;
17618;SDS011;8928;51.678;6.074;2022-10-16T09:25:19;7.07;;;1.80;;
17618;SDS011;8928;51.678;6.074;2022-10-16T09:28:07;7.03;;;2.00;;
17618;SDS011;8928;51.678;6.074;2022-10-16T09:30:55;5.67;;;1.70;;
17618;SDS011;8928;51.678;6.074;2022-10-16T09:33:42;16.83;;;2.00;;
17618;SDS011;8928;51.678;6.074;2022-10-16T09:36:36;6.83;;;1.83;;
17618;SDS011;8928;51.678;6.074;2022-10-16T09:39:28;11.63;;;1.73;;
17618;SDS011;8928;51.678;6.074;2022-10-16T09:42:16;12.67;;;1.90;;
17618;SDS011;8928;51.678;6.074;2022-10-16T09:45:05;11.37;;;1.87;;
17618;SDS011;8928;51.678;6.074;2022-10-16T09:48:10;9.73;;;1.97;;
17618;SDS011;8928;51.678;6.074;2022-10-16T09:50:59;4.73;;;1.57;;
17618;SDS011;8928;51.678;6.074;2022-10-16T09:53:53;7.73;;;1.63;;
17618;SDS011;8928;51.678;6.074;2022-10-16T09:56:41;5.90;;;1.43;;
17618;SDS011;8928;51.678;6.074;2022-10-16T09:59:31;7.53;;;1.83;;
17618;SDS011;8928;51.678;6.074;2022-10-16T10:02:19;8.77;;;1.67;;
17618;SDS011;8928;51.678;6.074;2022-10-16T10:05:17;4.73;;;1.50;;
17618;SDS011;8928;51.678;6.074;2022-10-16T10:08:12;8.37;;;1.83;;
17618;SDS011;8928;51.678;6.074;2022-10-16T10:11:05;6.67;;;1.63;;
17618;SDS011;8928;51.678;6.074;2022-10-16T10:13:52;7.40;;;1.63;;
17618;SDS011;8928;51.678;6.074;2022-10-16T10:16:49;12.15;;;1.73;;
17618;SDS011;8928;51.678;6.074;2022-10-16T10:19:38;10.23;;;1.38;;
17618;SDS011;8928;51.678;6.074;2022-10-16T10:22:29;8.68;;;1.50;;
17618;SDS011;8928;51.678;6.074;2022-10-16T10:25:26;7.60;;;1.35;;
17618;SDS011;8928;51.678;6.074;2022-10-16T10:28:42;12.25;;;1.70;;
17618;SDS011;8928;51.678;6.074;2022-10-16T10:31:38;11.15;;;1.80;;
17618;SDS011;8928;51.678;6.074;2022-10-16T10:34:37;10.98;;;1.40;;
17618;SDS011;8928;51.678;6.074;2022-10-16T10:37:41;9.85;;;1.65;;
17618;SDS011;8928;51.678;6.074;2022-10-16T10:40:44;8.05;;;1.60;;
17618;SDS011;8928;51.678;6.074;2022-10-16T10:43:40;11.70;;;1.45;;
17618;SDS011;8928;51.678;6.074;2022-10-16T10:46:38;7.22;;;1.50;;
17618;SDS011;8928;51.678;6.074;2022-10-16T10:52:41;8.07;;;1.50;;
17618;SDS011;8928;51.678;6.074;2022-10-16T10:55:39;10.35;;;1.48;;
17618;SDS011;8928;51.678;6.074;2022-10-16T10:58:36;11.00;;;1.50;;
17618;SDS011;8928;51.678;6.074;2022-10-16T11:01:39;9.43;;;1.33;;
17618;SDS011;8928;51.678;6.074;2022-10-16T11:08:07;9.82;;;1.42;;
17618;SDS011;8928;51.678;6.074;2022-10-16T11:10:58;9.18;;;1.33;;
17618;SDS011;8928;51.678;6.074;2022-10-16T11:13:49;9.63;;;1.90;;
17618;SDS011;8928;51.678;6.074;2022-10-16T11:16:44;9.13;;;1.40;;
17618;SDS011;8928;51.678;6.074;2022-10-16T11:19:39;9.25;;;1.42;;
17618;SDS011;8928;51.678;6.074;2022-10-16T11:22:33;11.15;;;1.60;;
17618;SDS011;8928;51.678;6.074;2022-10-16T11:25:23;10.93;;;1.65;;
17618;SDS011;8928;51.678;6.074;2022-10-16T11:28:14;9.68;;;1.50;;
17618;SDS011;8928;51.678;6.074;2022-10-16T11:31:07;9.57;;;1.50;;
17618;SDS011;8928;51.678;6.074;2022-10-16T11:34:01;15.63;;;1.83;;
17618;SDS011;8928;51.678;6.074;2022-10-16T11:36:53;9.02;;;1.30;;
17618;SDS011;8928;51.678;6.074;2022-10-16T11:39:45;10.90;;;1.52;;
17618;SDS011;8928;51.678;6.074;2022-10-16T11:42:33;7.10;;;1.40;;
17618;SDS011;8928;51.678;6.074;2022-10-16T11:45:27;8.45;;;1.35;;
17618;SDS011;8928;51.678;6.074;2022-10-16T11:48:22;9.88;;;1.63;;
17618;SDS011;8928;51.678;6.074;2022-10-16T11:51:16;8.50;;;1.52;;
17618;SDS011;8928;51.678;6.074;2022-10-16T11:54:14;8.18;;;1.70;;
17618;SDS011;8928;51.678;6.074;2022-10-16T11:57:08;13.88;;;1.80;;
17618;SDS011;8928;51.678;6.074;2022-10-16T12:00:02;7.38;;;1.70;;
17618;SDS011;8928;51.678;6.074;2022-10-16T12:02:58;11.07;;;1.45;;
17618;SDS011;8928;51.678;6.074;2022-10-16T12:09:10;10.02;;;1.40;;
17618;SDS011;8928;51.678;6.074;2022-10-16T12:12:05;8.13;;;1.50;;
17618;SDS011;8928;51.678;6.074;2022-10-16T12:15:18;8.07;;;1.40;;
17618;SDS011;8928;51.678;6.074;2022-10-16T12:18:07;11.35;;;1.80;;
17618;SDS011;8928;51.678;6.074;2022-10-16T12:21:08;10.30;;;1.20;;
17618;SDS011;8928;51.678;6.074;2022-10-16T12:24:00;9.48;;;1.40;;
17618;SDS011;8928;51.678;6.074;2022-10-16T12:26:50;9.57;;;1.30;;
17618;SDS011;8928;51.678;6.074;2022-10-16T12:29:39;7.75;;;1.38;;
17618;SDS011;8928;51.678;6.074;2022-10-16T12:32:29;6.22;;;1.40;;
17618;SDS011;8928;51.678;6.074;2022-10-16T12:35:18;6.65;;;1.17;;
17618;SDS011;8928;51.678;6.074;2022-10-16T12:38:12;6.97;;;1.35;;
17618;SDS011;8928;51.678;6.074;2022-10-16T12:41:05;9.98;;;1.25;;
17618;SDS011;8928;51.678;6.074;2022-10-16T12:43:54;9.02;;;1.63;;
17618;SDS011;8928;51.678;6.074;2022-10-16T12:46:42;10.73;;;1.55;;
17618;SDS011;8928;51.678;6.074;2022-10-16T12:49:30;8.02;;;1.30;;
17618;SDS011;8928;51.678;6.074;2022-10-16T12:52:24;10.55;;;1.52;;
17618;SDS011;8928;51.678;6.074;2022-10-16T12:55:15;10.05;;;1.50;;
17618;SDS011;8928;51.678;6.074;2022-10-16T12:58:12;8.77;;;1.30;;
17618;SDS011;8928;51.678;6.074;2022-10-16T13:01:11;6.78;;;1.20;;
17618;SDS011;8928;51.678;6.074;2022-10-16T13:04:20;7.72;;;1.13;;
17618;SDS011;8928;51.678;6.074;2022-10-16T13:07:20;6.72;;;1.13;;
17618;SDS011;8928;51.678;6.074;2022-10-16T13:10:17;8.07;;;1.30;;
17618;SDS011;8928;51.678;6.074;2022-10-16T13:13:22;5.97;;;1.10;;
17618;SDS011;8928;51.678;6.074;2022-10-16T13:16:27;5.70;;;1.20;;
17618;SDS011;8928;51.678;6.074;2022-10-16T13:19:22;9.63;;;1.40;;
17618;SDS011;8928;51.678;6.074;2022-10-16T13:22:17;9.23;;;1.40;;
17618;SDS011;8928;51.678;6.074;2022-10-16T13:25:16;7.63;;;1.35;;
17618;SDS011;8928;51.678;6.074;2022-10-16T13:28:10;6.80;;;1.00;;
17618;SDS011;8928;51.678;6.074;2022-10-16T13:31:00;7.22;;;1.20;;
17618;SDS011;8928;51.678;6.074;2022-10-16T13:33:49;9.13;;;1.17;;
17618;SDS011;8928;51.678;6.074;2022-10-16T13:36:42;8.57;;;1.20;;
17618;SDS011;8928;51.678;6.074;2022-10-16T13:39:31;5.75;;;1.08;;
17618;SDS011;8928;51.678;6.074;2022-10-16T13:42:20;7.20;;;1.38;;
17618;SDS011;8928;51.678;6.074;2022-10-16T13:45:16;5.35;;;1.17;;
17618;SDS011;8928;51.678;6.074;2022-10-16T13:48:06;10.60;;;1.45;;
17618;SDS011;8928;51.678;6.074;2022-10-16T13:51:04;9.20;;;1.50;;
17618;SDS011;8928;51.678;6.074;2022-10-16T13:53:57;10.23;;;1.60;;
17618;SDS011;8928;51.678;6.074;2022-10-16T13:56:44;8.13;;;1.00;;
17618;SDS011;8928;51.678;6.074;2022-10-16T13:59:32;8.70;;;1.30;;
17618;SDS011;8928;51.678;6.074;2022-10-16T14:02:22;6.95;;;1.17;;
17618;SDS011;8928;51.678;6.074;2022-10-16T14:05:14;6.85;;;1.10;;
17618;SDS011;8928;51.678;6.074;2022-10-16T14:08:01;6.75;;;1.08;;
17618;SDS011;8928;51.678;6.074;2022-10-16T14:10:49;6.13;;;1.10;;
17618;SDS011;8928;51.678;6.074;2022-10-16T14:13:38;9.80;;;1.17;;
17618;SDS011;8928;51.678;6.074;2022-10-16T14:16:29;9.95;;;1.02;;
17618;SDS011;8928;51.678;6.074;2022-10-16T14:19:18;4.40;;;1.20;;
17618;SDS011;8928;51.678;6.074;2022-10-16T14:22:19;8.35;;;1.10;;
17618;SDS011;8928;51.678;6.074;2022-10-16T14:25:22;4.78;;;1.00;;
17618;SDS011;8928;51.678;6.074;2022-10-16T14:28:15;11.50;;;1.00;;
17618;SDS011;8928;51.678;6.074;2022-10-16T14:31:19;7.70;;;1.20;;
17618;SDS011;8928;51.678;6.074;2022-10-16T14:34:27;6.57;;;1.10;;
17618;SDS011;8928;51.678;6.074;2022-10-16T14:37:21;11.23;;;1.20;;
17618;SDS011;8928;51.678;6.074;2022-10-16T14:40:13;8.43;;;1.02;;
17618;SDS011;8928;51.678;6.074;2022-10-16T14:43:02;9.07;;;1.20;;
17618;SDS011;8928;51.678;6.074;2022-10-16T14:45:50;5.00;;;0.95;;
17618;SDS011;8928;51.678;6.074;2022-10-16T14:48:40;6.82;;;1.10;;
17618;SDS011;8928;51.678;6.074;2022-10-16T14:51:28;8.27;;;1.30;;
17618;SDS011;8928;51.678;6.074;2022-10-16T14:54:18;7.13;;;1.10;;
17618;SDS011;8928;51.678;6.074;2022-10-16T14:57:05;6.45;;;0.90;;
17618;SDS011;8928;51.678;6.074;2022-10-16T15:00:00;9.05;;;1.10;;
17618;SDS011;8928;51.678;6.074;2022-10-16T15:02:47;8.80;;;1.00;;
17618;SDS011;8928;51.678;6.074;2022-10-16T15:05:36;11.52;;;1.15;;
17618;SDS011;8928;51.678;6.074;2022-10-16T15:08:23;9.52;;;1.25;;
17618;SDS011;8928;51.678;6.074;2022-10-16T15:11:12;8.18;;;1.15;;
17618;SDS011;8928;51.678;6.074;2022-10-16T15:14:00;9.20;;;1.20;;
17618;SDS011;8928;51.678;6.074;2022-10-16T15:16:48;5.03;;;1.00;;
17618;SDS011;8928;51.678;6.074;2022-10-16T15:19:35;6.38;;;1.02;;
17618;SDS011;8928;51.678;6.074;2022-10-16T15:22:22;7.03;;;1.20;;
17618;SDS011;8928;51.678;6.074;2022-10-16T15:25:10;5.72;;;1.25;;
17618;SDS011;8928;51.678;6.074;2022-10-16T15:28:14;5.13;;;1.00;;
17618;SDS011;8928;51.678;6.074;2022-10-16T15:31:02;10.40;;;1.40;;
17618;SDS011;8928;51.678;6.074;2022-10-16T15:33:51;11.30;;;1.20;;
17618;SDS011;8928;51.678;6.074;2022-10-16T15:36:43;8.80;;;1.27;;
17618;SDS011;8928;51.678;6.074;2022-10-16T15:39:30;20.10;;;1.23;;
17618;SDS011;8928;51.678;6.074;2022-10-16T15:42:17;5.10;;;1.20;;
17618;SDS011;8928;51.678;6.074;2022-10-16T15:45:06;4.28;;;0.93;;
17618;SDS011;8928;51.678;6.074;2022-10-16T15:47:54;8.13;;;1.10;;
17618;SDS011;8928;51.678;6.074;2022-10-16T15:50:41;6.70;;;1.10;;
17618;SDS011;8928;51.678;6.074;2022-10-16T15:53:28;5.20;;;1.00;;
17618;SDS011;8928;51.678;6.074;2022-10-16T15:56:15;4.93;;;0.90;;
17618;SDS011;8928;51.678;6.074;2022-10-16T15:59:03;5.05;;;0.90;;
17618;SDS011;8928;51.678;6.074;2022-10-16T16:01:52;5.10;;;1.15;;
17618;SDS011;8928;51.678;6.074;2022-10-16T16:04:39;11.43;;;1.60;;
17618;SDS011;8928;51.678;6.074;2022-10-16T16:07:26;4.90;;;1.15;;
17618;SDS011;8928;51.678;6.074;2022-10-16T16:10:13;4.20;;;1.10;;
17618;SDS011;8928;51.678;6.074;2022-10-16T16:13:00;4.97;;;1.10;;
17618;SDS011;8928;51.678;6.074;2022-10-16T16:15:47;5.00;;;0.93;;
17618;SDS011;8928;51.678;6.074;2022-10-16T16:18:35;3.30;;;1.10;;
17618;SDS011;8928;51.678;6.074;2022-10-16T16:21:23;5.70;;;1.10;;
17618;SDS011;8928;51.678;6.074;2022-10-16T16:24:10;4.23;;;1.00;;
17618;SDS011;8928;51.678;6.074;2022-10-16T16:26:57;4.63;;;1.17;;
17618;SDS011;8928;51.678;6.074;2022-10-16T16:29:44;4.97;;;1.10;;
17618;SDS011;8928;51.678;6.074;2022-10-16T16:32:31;5.67;;;1.00;;
17618;SDS011;8928;51.678;6.074;2022-10-16T16:35:19;5.73;;;1.10;;
17618;SDS011;8928;51.678;6.074;2022-10-16T16:38:06;4.63;;;1.30;;
17618;SDS011;8928;51.678;6.074;2022-10-16T16:40:53;4.67;;;1.60;;
17618;SDS011;8928;51.678;6.074;2022-10-16T16:43:41;7.63;;;1.90;;
17618;SDS011;8928;51.678;6.074;2022-10-16T16:46:28;4.70;;;1.63;;
17618;SDS011;8928;51.678;6.074;2022-10-16T16:49:15;7.70;;;1.67;;
17618;SDS011;8928;51.678;6.074;2022-10-16T16:52:03;5.80;;;1.63;;
17618;SDS011;8928;51.678;6.074;2022-10-16T16:54:51;6.57;;;1.70;;
17618;SDS011;8928;51.678;6.074;2022-10-16T16:57:38;5.33;;;1.83;;
17618;SDS011;8928;51.678;6.074;2022-10-16T17:00:25;7.57;;;2.17;;
17618;SDS011;8928;51.678;6.074;2022-10-16T17:03:12;9.00;;;2.57;;
17618;SDS011;8928;51.678;6.074;2022-10-16T17:06:00;8.27;;;3.30;;
17618;SDS011;8928;51.678;6.074;2022-10-16T17:08:50;11.17;;;3.30;;
17618;SDS011;8928;51.678;6.074;2022-10-16T17:11:37;8.00;;;3.30;;
17618;SDS011;8928;51.678;6.074;2022-10-16T17:14:26;7.73;;;2.80;;
17618;SDS011;8928;51.678;6.074;2022-10-16T17:17:13;7.30;;;2.77;;
17618;SDS011;8928;51.678;6.074;2022-10-16T17:20:00;7.57;;;2.73;;
17618;SDS011;8928;51.678;6.074;2022-10-16T17:22:47;7.33;;;2.47;;
17618;SDS011;8928;51.678;6.074;2022-10-16T17:25:36;6.03;;;2.90;;